sensor_id;sensor_type;location;lat;lon;timestamp;P1;durP1;ratioP1;P2;durP2;ratioP2
18334;SDS011;9293;49.524;10.964;2023-12-29T00:00:06;2.15;;;1.67;;
18334;SDS011;9293;49.524;10.964;2023-12-29T00:02:37;2.45;;;1.65;;
18334;SDS011;9293;49.524;10.964;2023-12-29T00:05:05;5.45;;;1.80;;
18334;SDS011;9293;49.524;10.964;2023-12-29T00:07:34;2.95;;;1.90;;
18334;SDS011;9293;49.524;10.964;2023-12-29T00:10:03;4.32;;;2.17;;
18334;SDS011;9293;49.524;10.964;2023-12-29T00:12:32;3.25;;;1.95;;
18334;SDS011;9293;49.524;10.964;2023-12-29T00:15:00;3.65;;;2.20;;
18334;SDS011;9293;49.524;10.964;2023-12-29T00:17:28;3.30;;;2.20;;
18334;SDS011;9293;49.524;10.964;2023-12-29T00:19:58;2.33;;;1.70;;
18334;SDS011;9293;49.524;10.964;2023-12-29T00:22:26;3.50;;;1.67;;
18334;SDS011;9293;49.524;10.964;2023-12-29T00:24:55;2.00;;;1.80;;
18334;SDS011;9293;49.524;10.964;2023-12-29T00:27:23;3.22;;;1.60;;
18334;SDS011;9293;49.524;10.964;2023-12-29T00:29:52;2.67;;;1.85;;
18334;SDS011;9293;49.524;10.964;2023-12-29T00:32:21;3.15;;;1.85;;
18334;SDS011;9293;49.524;10.964;2023-12-29T00:34:50;2.20;;;1.23;;
18334;SDS011;9293;49.524;10.964;2023-12-29T00:37:18;2.60;;;1.33;;
18334;SDS011;9293;49.524;10.964;2023-12-29T00:39:46;4.20;;;1.77;;
18334;SDS011;9293;49.524;10.964;2023-12-29T00:42:17;4.40;;;1.92;;
18334;SDS011;9293;49.524;10.964;2023-12-29T00:44:45;3.47;;;2.13;;
18334;SDS011;9293;49.524;10.964;2023-12-29T00:47:13;4.38;;;1.70;;
18334;SDS011;9293;49.524;10.964;2023-12-29T00:49:42;2.50;;;1.63;;
18334;SDS011;9293;49.524;10.964;2023-12-29T00:52:10;2.53;;;1.40;;
18334;SDS011;9293;49.524;10.964;2023-12-29T00:54:40;4.72;;;2.40;;
18334;SDS011;9293;49.524;10.964;2023-12-29T00:57:08;4.65;;;2.30;;
18334;SDS011;9293;49.524;10.964;2023-12-29T00:59:37;4.80;;;2.60;;
18334;SDS011;9293;49.524;10.964;2023-12-29T01:02:09;5.00;;;2.30;;
18334;SDS011;9293;49.524;10.964;2023-12-29T01:04:38;2.65;;;1.83;;
18334;SDS011;9293;49.524;10.964;2023-12-29T01:07:07;1.85;;;1.38;;
18334;SDS011;9293;49.524;10.964;2023-12-29T01:09:38;4.43;;;1.60;;
18334;SDS011;9293;49.524;10.964;2023-12-29T01:12:08;3.22;;;1.88;;
18334;SDS011;9293;49.524;10.964;2023-12-29T01:14:36;1.85;;;1.35;;
18334;SDS011;9293;49.524;10.964;2023-12-29T01:17:05;3.67;;;1.90;;
18334;SDS011;9293;49.524;10.964;2023-12-29T01:19:33;7.60;;;2.10;;
18334;SDS011;9293;49.524;10.964;2023-12-29T01:22:02;5.70;;;2.10;;
18334;SDS011;9293;49.524;10.964;2023-12-29T01:24:30;3.58;;;2.00;;
18334;SDS011;9293;49.524;10.964;2023-12-29T01:27:11;2.70;;;1.73;;
18334;SDS011;9293;49.524;10.964;2023-12-29T01:29:39;4.72;;;1.63;;
18334;SDS011;9293;49.524;10.964;2023-12-29T01:32:08;3.25;;;1.58;;
18334;SDS011;9293;49.524;10.964;2023-12-29T01:34:38;2.00;;;1.30;;
18334;SDS011;9293;49.524;10.964;2023-12-29T01:37:06;2.13;;;1.67;;
18334;SDS011;9293;49.524;10.964;2023-12-29T01:39:36;2.03;;;1.70;;
18334;SDS011;9293;49.524;10.964;2023-12-29T01:42:04;2.80;;;1.55;;
18334;SDS011;9293;49.524;10.964;2023-12-29T01:44:33;4.32;;;1.85;;
18334;SDS011;9293;49.524;10.964;2023-12-29T01:47:02;4.65;;;1.48;;
18334;SDS011;9293;49.524;10.964;2023-12-29T01:49:37;2.38;;;1.42;;
18334;SDS011;9293;49.524;10.964;2023-12-29T01:52:06;1.98;;;1.27;;
18334;SDS011;9293;49.524;10.964;2023-12-29T01:54:36;4.13;;;1.70;;
18334;SDS011;9293;49.524;10.964;2023-12-29T01:57:08;2.95;;;1.50;;
18334;SDS011;9293;49.524;10.964;2023-12-29T01:59:40;2.10;;;1.35;;
18334;SDS011;9293;49.524;10.964;2023-12-29T02:02:13;1.52;;;1.02;;
18334;SDS011;9293;49.524;10.964;2023-12-29T02:04:43;3.45;;;1.33;;
18334;SDS011;9293;49.524;10.964;2023-12-29T02:07:12;2.42;;;1.15;;
18334;SDS011;9293;49.524;10.964;2023-12-29T02:09:41;1.30;;;1.00;;
18334;SDS011;9293;49.524;10.964;2023-12-29T02:12:10;1.45;;;1.20;;
18334;SDS011;9293;49.524;10.964;2023-12-29T02:14:38;2.63;;;1.30;;
18334;SDS011;9293;49.524;10.964;2023-12-29T02:19:44;1.77;;;1.20;;
18334;SDS011;9293;49.524;10.964;2023-12-29T02:22:14;1.77;;;1.35;;
18334;SDS011;9293;49.524;10.964;2023-12-29T02:24:46;2.20;;;1.38;;
18334;SDS011;9293;49.524;10.964;2023-12-29T02:32:38;2.10;;;1.35;;
18334;SDS011;9293;49.524;10.964;2023-12-29T02:35:21;1.27;;;1.17;;
18334;SDS011;9293;49.524;10.964;2023-12-29T02:37:54;2.22;;;1.70;;
18334;SDS011;9293;49.524;10.964;2023-12-29T02:40:24;2.78;;;1.50;;
18334;SDS011;9293;49.524;10.964;2023-12-29T02:42:53;4.18;;;1.85;;
18334;SDS011;9293;49.524;10.964;2023-12-29T02:45:21;1.77;;;1.38;;
18334;SDS011;9293;49.524;10.964;2023-12-29T02:47:50;3.25;;;1.30;;
18334;SDS011;9293;49.524;10.964;2023-12-29T02:50:18;2.00;;;1.20;;
18334;SDS011;9293;49.524;10.964;2023-12-29T02:52:47;1.83;;;1.13;;
18334;SDS011;9293;49.524;10.964;2023-12-29T02:55:15;1.73;;;1.10;;
18334;SDS011;9293;49.524;10.964;2023-12-29T02:57:44;3.15;;;1.40;;
18334;SDS011;9293;49.524;10.964;2023-12-29T03:00:12;2.42;;;1.33;;
18334;SDS011;9293;49.524;10.964;2023-12-29T03:02:41;1.42;;;1.00;;
18334;SDS011;9293;49.524;10.964;2023-12-29T03:05:10;2.50;;;1.30;;
18334;SDS011;9293;49.524;10.964;2023-12-29T03:07:39;2.13;;;1.30;;
18334;SDS011;9293;49.524;10.964;2023-12-29T03:10:08;2.17;;;1.23;;
18334;SDS011;9293;49.524;10.964;2023-12-29T03:12:37;1.23;;;1.10;;
18334;SDS011;9293;49.524;10.964;2023-12-29T03:15:06;2.40;;;1.52;;
18334;SDS011;9293;49.524;10.964;2023-12-29T03:17:34;2.10;;;1.50;;
18334;SDS011;9293;49.524;10.964;2023-12-29T03:20:03;2.63;;;1.23;;
18334;SDS011;9293;49.524;10.964;2023-12-29T03:22:32;2.55;;;1.45;;
18334;SDS011;9293;49.524;10.964;2023-12-29T03:25:01;2.03;;;1.23;;
18334;SDS011;9293;49.524;10.964;2023-12-29T03:27:29;2.65;;;1.60;;
18334;SDS011;9293;49.524;10.964;2023-12-29T03:29:58;2.08;;;1.60;;
18334;SDS011;9293;49.524;10.964;2023-12-29T03:32:26;2.22;;;1.60;;
18334;SDS011;9293;49.524;10.964;2023-12-29T03:34:54;2.63;;;1.50;;
18334;SDS011;9293;49.524;10.964;2023-12-29T03:37:23;2.58;;;1.48;;
18334;SDS011;9293;49.524;10.964;2023-12-29T03:39:51;2.90;;;1.65;;
18334;SDS011;9293;49.524;10.964;2023-12-29T03:42:19;3.92;;;1.38;;
18334;SDS011;9293;49.524;10.964;2023-12-29T03:44:48;4.13;;;1.83;;
18334;SDS011;9293;49.524;10.964;2023-12-29T03:47:16;2.78;;;1.70;;
18334;SDS011;9293;49.524;10.964;2023-12-29T03:49:44;2.17;;;1.77;;
18334;SDS011;9293;49.524;10.964;2023-12-29T03:52:13;2.13;;;1.42;;
18334;SDS011;9293;49.524;10.964;2023-12-29T03:54:41;2.28;;;1.50;;
18334;SDS011;9293;49.524;10.964;2023-12-29T03:57:09;4.40;;;1.60;;
18334;SDS011;9293;49.524;10.964;2023-12-29T03:59:39;3.22;;;1.55;;
18334;SDS011;9293;49.524;10.964;2023-12-29T04:04:41;4.32;;;2.00;;
18334;SDS011;9293;49.524;10.964;2023-12-29T04:07:10;3.15;;;2.08;;
18334;SDS011;9293;49.524;10.964;2023-12-29T04:09:39;2.78;;;2.05;;
18334;SDS011;9293;49.524;10.964;2023-12-29T04:12:07;4.07;;;1.80;;
18334;SDS011;9293;49.524;10.964;2023-12-29T04:14:36;1.90;;;1.50;;
18334;SDS011;9293;49.524;10.964;2023-12-29T04:17:04;2.65;;;2.00;;
18334;SDS011;9293;49.524;10.964;2023-12-29T04:19:41;3.15;;;2.10;;
18334;SDS011;9293;49.524;10.964;2023-12-29T04:22:09;3.30;;;1.98;;
18334;SDS011;9293;49.524;10.964;2023-12-29T04:24:38;2.72;;;2.03;;
18334;SDS011;9293;49.524;10.964;2023-12-29T04:27:07;2.25;;;1.90;;
18334;SDS011;9293;49.524;10.964;2023-12-29T04:29:36;2.67;;;2.22;;
18334;SDS011;9293;49.524;10.964;2023-12-29T04:32:05;2.20;;;1.70;;
18334;SDS011;9293;49.524;10.964;2023-12-29T04:34:35;2.40;;;2.00;;
18334;SDS011;9293;49.524;10.964;2023-12-29T04:37:03;2.47;;;1.90;;
18334;SDS011;9293;49.524;10.964;2023-12-29T04:39:32;3.22;;;2.08;;
18334;SDS011;9293;49.524;10.964;2023-12-29T04:42:00;2.92;;;1.58;;
18334;SDS011;9293;49.524;10.964;2023-12-29T04:44:28;3.10;;;1.77;;
18334;SDS011;9293;49.524;10.964;2023-12-29T04:46:57;2.30;;;2.05;;
18334;SDS011;9293;49.524;10.964;2023-12-29T04:49:25;2.63;;;2.00;;
18334;SDS011;9293;49.524;10.964;2023-12-29T04:51:54;2.28;;;1.73;;
18334;SDS011;9293;49.524;10.964;2023-12-29T04:54:23;2.28;;;1.83;;
18334;SDS011;9293;49.524;10.964;2023-12-29T04:56:52;2.78;;;1.90;;
18334;SDS011;9293;49.524;10.964;2023-12-29T04:59:20;2.92;;;2.00;;
18334;SDS011;9293;49.524;10.964;2023-12-29T05:01:48;2.55;;;2.10;;
18334;SDS011;9293;49.524;10.964;2023-12-29T05:04:17;2.03;;;1.58;;
18334;SDS011;9293;49.524;10.964;2023-12-29T05:06:45;1.90;;;1.63;;
18334;SDS011;9293;49.524;10.964;2023-12-29T05:09:13;2.33;;;1.63;;
18334;SDS011;9293;49.524;10.964;2023-12-29T05:11:42;2.75;;;1.80;;
18334;SDS011;9293;49.524;10.964;2023-12-29T05:14:10;2.13;;;1.83;;
18334;SDS011;9293;49.524;10.964;2023-12-29T05:16:39;3.88;;;1.98;;
18334;SDS011;9293;49.524;10.964;2023-12-29T05:19:09;1.63;;;1.42;;
18334;SDS011;9293;49.524;10.964;2023-12-29T05:21:37;3.38;;;1.90;;
18334;SDS011;9293;49.524;10.964;2023-12-29T05:24:05;2.85;;;1.60;;
18334;SDS011;9293;49.524;10.964;2023-12-29T05:26:34;5.03;;;2.00;;
18334;SDS011;9293;49.524;10.964;2023-12-29T05:29:02;4.22;;;2.08;;
18334;SDS011;9293;49.524;10.964;2023-12-29T05:31:31;2.75;;;1.77;;
18334;SDS011;9293;49.524;10.964;2023-12-29T05:33:59;2.70;;;1.70;;
18334;SDS011;9293;49.524;10.964;2023-12-29T05:36:34;2.67;;;1.45;;
18334;SDS011;9293;49.524;10.964;2023-12-29T05:39:05;2.90;;;1.85;;
18334;SDS011;9293;49.524;10.964;2023-12-29T05:41:34;4.38;;;1.92;;
18334;SDS011;9293;49.524;10.964;2023-12-29T05:44:02;3.25;;;1.98;;
18334;SDS011;9293;49.524;10.964;2023-12-29T05:46:31;3.13;;;1.90;;
18334;SDS011;9293;49.524;10.964;2023-12-29T05:48:59;3.35;;;1.88;;
18334;SDS011;9293;49.524;10.964;2023-12-29T05:51:28;2.28;;;2.05;;
18334;SDS011;9293;49.524;10.964;2023-12-29T05:53:56;3.25;;;1.83;;
18334;SDS011;9293;49.524;10.964;2023-12-29T05:56:24;2.97;;;2.25;;
18334;SDS011;9293;49.524;10.964;2023-12-29T05:58:53;2.55;;;2.03;;
18334;SDS011;9293;49.524;10.964;2023-12-29T06:01:21;2.20;;;1.80;;
18334;SDS011;9293;49.524;10.964;2023-12-29T06:03:49;2.63;;;2.15;;
18334;SDS011;9293;49.524;10.964;2023-12-29T06:06:18;3.17;;;2.15;;
18334;SDS011;9293;49.524;10.964;2023-12-29T06:08:46;3.53;;;2.20;;
18334;SDS011;9293;49.524;10.964;2023-12-29T06:11:15;3.15;;;2.20;;
18334;SDS011;9293;49.524;10.964;2023-12-29T06:13:44;5.15;;;2.58;;
18334;SDS011;9293;49.524;10.964;2023-12-29T06:16:19;3.63;;;2.85;;
18334;SDS011;9293;49.524;10.964;2023-12-29T06:18:48;2.78;;;2.33;;
18334;SDS011;9293;49.524;10.964;2023-12-29T06:21:17;2.97;;;2.30;;
18334;SDS011;9293;49.524;10.964;2023-12-29T06:23:45;3.63;;;2.33;;
18334;SDS011;9293;49.524;10.964;2023-12-29T06:26:17;3.50;;;2.28;;
18334;SDS011;9293;49.524;10.964;2023-12-29T06:28:47;3.97;;;2.55;;
18334;SDS011;9293;49.524;10.964;2023-12-29T06:31:16;2.90;;;2.22;;
18334;SDS011;9293;49.524;10.964;2023-12-29T06:33:45;4.93;;;2.40;;
18334;SDS011;9293;49.524;10.964;2023-12-29T06:36:14;3.58;;;2.55;;
18334;SDS011;9293;49.524;10.964;2023-12-29T06:38:42;3.65;;;2.53;;
18334;SDS011;9293;49.524;10.964;2023-12-29T06:41:16;3.65;;;2.25;;
18334;SDS011;9293;49.524;10.964;2023-12-29T06:43:44;3.80;;;2.55;;
18334;SDS011;9293;49.524;10.964;2023-12-29T06:46:13;5.47;;;2.90;;
18334;SDS011;9293;49.524;10.964;2023-12-29T06:48:41;3.40;;;2.50;;
18334;SDS011;9293;49.524;10.964;2023-12-29T06:51:15;3.63;;;2.60;;
18334;SDS011;9293;49.524;10.964;2023-12-29T06:53:46;3.38;;;1.80;;
18334;SDS011;9293;49.524;10.964;2023-12-29T06:56:17;2.97;;;2.15;;
18334;SDS011;9293;49.524;10.964;2023-12-29T06:58:46;2.47;;;2.03;;
18334;SDS011;9293;49.524;10.964;2023-12-29T07:01:14;2.63;;;2.22;;
18334;SDS011;9293;49.524;10.964;2023-12-29T07:03:43;2.40;;;2.03;;
18334;SDS011;9293;49.524;10.964;2023-12-29T07:06:12;2.47;;;2.28;;
18334;SDS011;9293;49.524;10.964;2023-12-29T07:08:40;4.97;;;2.28;;
18334;SDS011;9293;49.524;10.964;2023-12-29T07:11:09;3.90;;;2.47;;
18334;SDS011;9293;49.524;10.964;2023-12-29T07:13:39;3.45;;;2.05;;
18334;SDS011;9293;49.524;10.964;2023-12-29T07:16:07;2.30;;;1.45;;
18334;SDS011;9293;49.524;10.964;2023-12-29T07:18:36;3.53;;;1.55;;
18334;SDS011;9293;49.524;10.964;2023-12-29T07:21:04;2.05;;;1.60;;
18334;SDS011;9293;49.524;10.964;2023-12-29T07:23:33;2.25;;;1.60;;
18334;SDS011;9293;49.524;10.964;2023-12-29T07:26:01;1.85;;;1.60;;
18334;SDS011;9293;49.524;10.964;2023-12-29T07:28:29;2.03;;;1.30;;
18334;SDS011;9293;49.524;10.964;2023-12-29T07:30:59;2.63;;;1.67;;
18334;SDS011;9293;49.524;10.964;2023-12-29T07:33:28;1.90;;;1.65;;
18334;SDS011;9293;49.524;10.964;2023-12-29T07:35:58;4.93;;;2.30;;
18334;SDS011;9293;49.524;10.964;2023-12-29T07:38:27;2.65;;;1.73;;
18334;SDS011;9293;49.524;10.964;2023-12-29T07:40:56;2.53;;;1.85;;
18334;SDS011;9293;49.524;10.964;2023-12-29T07:43:24;2.35;;;1.52;;
18334;SDS011;9293;49.524;10.964;2023-12-29T07:45:52;2.33;;;1.67;;
18334;SDS011;9293;49.524;10.964;2023-12-29T07:48:21;1.88;;;1.38;;
18334;SDS011;9293;49.524;10.964;2023-12-29T07:50:49;1.23;;;1.13;;
18334;SDS011;9293;49.524;10.964;2023-12-29T07:53:18;2.08;;;1.17;;
18334;SDS011;9293;49.524;10.964;2023-12-29T07:55:46;1.98;;;1.50;;
18334;SDS011;9293;49.524;10.964;2023-12-29T07:58:17;2.53;;;1.80;;
18334;SDS011;9293;49.524;10.964;2023-12-29T08:00:46;2.75;;;1.80;;
18334;SDS011;9293;49.524;10.964;2023-12-29T08:03:14;3.78;;;1.77;;
18334;SDS011;9293;49.524;10.964;2023-12-29T08:05:42;2.60;;;1.23;;
18334;SDS011;9293;49.524;10.964;2023-12-29T08:08:11;2.30;;;1.55;;
18334;SDS011;9293;49.524;10.964;2023-12-29T08:10:39;3.50;;;2.13;;
18334;SDS011;9293;49.524;10.964;2023-12-29T08:13:09;14.10;;;5.95;;
18334;SDS011;9293;49.524;10.964;2023-12-29T08:15:38;3.72;;;1.77;;
18334;SDS011;9293;49.524;10.964;2023-12-29T08:18:07;4.30;;;1.60;;
18334;SDS011;9293;49.524;10.964;2023-12-29T08:20:36;1.50;;;0.70;;
18334;SDS011;9293;49.524;10.964;2023-12-29T08:23:07;1.10;;;0.65;;
18334;SDS011;9293;49.524;10.964;2023-12-29T08:25:39;0.90;;;0.70;;
18334;SDS011;9293;49.524;10.964;2023-12-29T08:30:36;2.38;;;1.45;;
18334;SDS011;9293;49.524;10.964;2023-12-29T08:33:06;0.90;;;0.70;;
18334;SDS011;9293;49.524;10.964;2023-12-29T08:35:34;1.10;;;0.70;;
18334;SDS011;9293;49.524;10.964;2023-12-29T08:38:03;0.80;;;0.60;;
18334;SDS011;9293;49.524;10.964;2023-12-29T08:40:31;1.10;;;0.80;;
18334;SDS011;9293;49.524;10.964;2023-12-29T08:42:59;0.75;;;0.70;;
18334;SDS011;9293;49.524;10.964;2023-12-29T08:45:29;1.23;;;0.60;;
18334;SDS011;9293;49.524;10.964;2023-12-29T08:47:57;0.98;;;0.70;;
18334;SDS011;9293;49.524;10.964;2023-12-29T08:50:26;1.63;;;0.80;;
18334;SDS011;9293;49.524;10.964;2023-12-29T08:52:55;1.52;;;0.70;;
18334;SDS011;9293;49.524;10.964;2023-12-29T08:55:23;3.22;;;0.70;;
18334;SDS011;9293;49.524;10.964;2023-12-29T08:57:52;1.67;;;1.05;;
18334;SDS011;9293;49.524;10.964;2023-12-29T09:00:20;1.25;;;0.70;;
18334;SDS011;9293;49.524;10.964;2023-12-29T09:02:48;1.63;;;0.70;;
18334;SDS011;9293;49.524;10.964;2023-12-29T09:05:17;0.95;;;0.60;;
18334;SDS011;9293;49.524;10.964;2023-12-29T09:07:45;1.50;;;0.85;;
18334;SDS011;9293;49.524;10.964;2023-12-29T09:10:13;1.40;;;1.00;;
18334;SDS011;9293;49.524;10.964;2023-12-29T09:12:42;1.38;;;0.70;;
18334;SDS011;9293;49.524;10.964;2023-12-29T09:15:11;1.75;;;0.68;;
18334;SDS011;9293;49.524;10.964;2023-12-29T09:17:40;0.93;;;0.70;;
18334;SDS011;9293;49.524;10.964;2023-12-29T09:20:08;0.85;;;0.70;;
18334;SDS011;9293;49.524;10.964;2023-12-29T09:22:37;1.85;;;0.77;;
18334;SDS011;9293;49.524;10.964;2023-12-29T09:25:06;1.60;;;0.63;;
18334;SDS011;9293;49.524;10.964;2023-12-29T09:27:34;1.25;;;0.70;;
18334;SDS011;9293;49.524;10.964;2023-12-29T09:30:03;2.45;;;0.70;;
18334;SDS011;9293;49.524;10.964;2023-12-29T09:32:32;1.35;;;0.60;;
18334;SDS011;9293;49.524;10.964;2023-12-29T09:35:01;1.77;;;0.75;;
18334;SDS011;9293;49.524;10.964;2023-12-29T09:37:31;1.25;;;0.68;;
18334;SDS011;9293;49.524;10.964;2023-12-29T09:39:59;0.80;;;0.60;;
18334;SDS011;9293;49.524;10.964;2023-12-29T09:42:28;1.05;;;0.50;;
18334;SDS011;9293;49.524;10.964;2023-12-29T09:44:57;1.33;;;0.60;;
18334;SDS011;9293;49.524;10.964;2023-12-29T09:47:30;2.08;;;0.75;;
18334;SDS011;9293;49.524;10.964;2023-12-29T09:50:02;1.02;;;0.52;;
18334;SDS011;9293;49.524;10.964;2023-12-29T09:52:37;0.77;;;0.52;;
18334;SDS011;9293;49.524;10.964;2023-12-29T09:55:09;0.90;;;0.65;;
18334;SDS011;9293;49.524;10.964;2023-12-29T09:57:41;1.10;;;0.70;;
18334;SDS011;9293;49.524;10.964;2023-12-29T10:00:10;1.08;;;0.75;;
18334;SDS011;9293;49.524;10.964;2023-12-29T10:02:39;3.35;;;0.70;;
18334;SDS011;9293;49.524;10.964;2023-12-29T10:05:08;0.73;;;0.70;;
18334;SDS011;9293;49.524;10.964;2023-12-29T10:07:38;1.10;;;0.70;;
18334;SDS011;9293;49.524;10.964;2023-12-29T10:10:07;1.15;;;0.80;;
18334;SDS011;9293;49.524;10.964;2023-12-29T10:12:40;1.48;;;0.82;;
18334;SDS011;9293;49.524;10.964;2023-12-29T10:15:15;2.35;;;0.70;;
18334;SDS011;9293;49.524;10.964;2023-12-29T10:26:40;0.88;;;0.68;;
18334;SDS011;9293;49.524;10.964;2023-12-29T10:29:11;1.60;;;0.98;;
18334;SDS011;9293;49.524;10.964;2023-12-29T10:31:44;1.17;;;0.73;;
18334;SDS011;9293;49.524;10.964;2023-12-29T10:34:19;1.33;;;0.73;;
18334;SDS011;9293;49.524;10.964;2023-12-29T10:36:49;1.23;;;0.60;;
18334;SDS011;9293;49.524;10.964;2023-12-29T10:39:18;0.55;;;0.47;;
18334;SDS011;9293;49.524;10.964;2023-12-29T10:41:46;1.73;;;0.80;;
18334;SDS011;9293;49.524;10.964;2023-12-29T10:44:15;0.75;;;0.70;;
18334;SDS011;9293;49.524;10.964;2023-12-29T10:46:44;2.65;;;0.77;;
18334;SDS011;9293;49.524;10.964;2023-12-29T10:49:13;0.90;;;0.70;;
18334;SDS011;9293;49.524;10.964;2023-12-29T10:51:41;0.65;;;0.63;;
18334;SDS011;9293;49.524;10.964;2023-12-29T10:54:13;2.35;;;1.10;;
18334;SDS011;9293;49.524;10.964;2023-12-29T10:57:00;1.30;;;0.80;;
18334;SDS011;9293;49.524;10.964;2023-12-29T10:59:31;1.40;;;0.90;;
18334;SDS011;9293;49.524;10.964;2023-12-29T11:02:03;1.15;;;0.93;;
18334;SDS011;9293;49.524;10.964;2023-12-29T11:04:32;2.25;;;0.88;;
18334;SDS011;9293;49.524;10.964;2023-12-29T11:07:01;4.47;;;2.20;;
18334;SDS011;9293;49.524;10.964;2023-12-29T11:09:30;2.72;;;1.20;;
18334;SDS011;9293;49.524;10.964;2023-12-29T11:12:01;1.52;;;1.00;;
18334;SDS011;9293;49.524;10.964;2023-12-29T11:14:31;3.67;;;1.20;;
18334;SDS011;9293;49.524;10.964;2023-12-29T11:17:00;2.47;;;0.90;;
18334;SDS011;9293;49.524;10.964;2023-12-29T11:19:28;1.10;;;0.98;;
18334;SDS011;9293;49.524;10.964;2023-12-29T11:22:00;1.70;;;1.30;;
18334;SDS011;9293;49.524;10.964;2023-12-29T11:24:49;1.98;;;1.23;;
18334;SDS011;9293;49.524;10.964;2023-12-29T11:27:18;1.90;;;1.10;;
18334;SDS011;9293;49.524;10.964;2023-12-29T11:29:47;1.45;;;1.20;;
18334;SDS011;9293;49.524;10.964;2023-12-29T11:32:17;1.20;;;1.00;;
18334;SDS011;9293;49.524;10.964;2023-12-29T11:34:52;2.45;;;1.08;;
18334;SDS011;9293;49.524;10.964;2023-12-29T11:41:05;2.63;;;1.00;;
18334;SDS011;9293;49.524;10.964;2023-12-29T11:43:56;1.65;;;0.90;;
18334;SDS011;9293;49.524;10.964;2023-12-29T11:46:38;1.60;;;1.00;;
18334;SDS011;9293;49.524;10.964;2023-12-29T11:49:10;2.97;;;1.00;;
18334;SDS011;9293;49.524;10.964;2023-12-29T11:51:40;1.23;;;0.60;;
18334;SDS011;9293;49.524;10.964;2023-12-29T11:56:49;1.05;;;0.77;;
18334;SDS011;9293;49.524;10.964;2023-12-29T11:59:22;1.45;;;0.70;;
18334;SDS011;9293;49.524;10.964;2023-12-29T12:01:52;2.35;;;0.52;;
18334;SDS011;9293;49.524;10.964;2023-12-29T12:12:48;1.35;;;0.57;;
18334;SDS011;9293;49.524;10.964;2023-12-29T12:18:00;0.75;;;0.50;;
18334;SDS011;9293;49.524;10.964;2023-12-29T12:20:28;1.42;;;0.63;;
18334;SDS011;9293;49.524;10.964;2023-12-29T12:25:30;2.05;;;0.50;;
18334;SDS011;9293;49.524;10.964;2023-12-29T12:28:05;0.85;;;0.70;;
18334;SDS011;9293;49.524;10.964;2023-12-29T12:30:42;0.82;;;0.50;;
18334;SDS011;9293;49.524;10.964;2023-12-29T12:33:11;0.80;;;0.60;;
18334;SDS011;9293;49.524;10.964;2023-12-29T12:35:41;0.90;;;0.63;;
18334;SDS011;9293;49.524;10.964;2023-12-29T12:38:15;1.40;;;0.60;;
18334;SDS011;9293;49.524;10.964;2023-12-29T12:40:52;1.58;;;0.73;;
18334;SDS011;9293;49.524;10.964;2023-12-29T12:43:20;1.50;;;0.80;;
18334;SDS011;9293;49.524;10.964;2023-12-29T12:45:53;1.65;;;0.77;;
18334;SDS011;9293;49.524;10.964;2023-12-29T12:48:34;1.42;;;0.90;;
18334;SDS011;9293;49.524;10.964;2023-12-29T12:51:09;1.98;;;0.82;;
18334;SDS011;9293;49.524;10.964;2023-12-29T12:53:39;1.92;;;0.70;;
18334;SDS011;9293;49.524;10.964;2023-12-29T12:56:09;0.98;;;0.70;;
18334;SDS011;9293;49.524;10.964;2023-12-29T12:58:38;3.90;;;1.15;;
18334;SDS011;9293;49.524;10.964;2023-12-29T13:01:06;1.27;;;0.70;;
18334;SDS011;9293;49.524;10.964;2023-12-29T13:03:39;0.82;;;0.52;;
18334;SDS011;9293;49.524;10.964;2023-12-29T13:06:13;0.47;;;0.40;;
18334;SDS011;9293;49.524;10.964;2023-12-29T13:08:41;0.50;;;0.30;;
18334;SDS011;9293;49.524;10.964;2023-12-29T13:11:10;0.80;;;0.50;;
18334;SDS011;9293;49.524;10.964;2023-12-29T13:13:42;0.75;;;0.35;;
18334;SDS011;9293;49.524;10.964;2023-12-29T13:16:10;0.65;;;0.38;;
18334;SDS011;9293;49.524;10.964;2023-12-29T13:18:41;1.23;;;0.50;;
18334;SDS011;9293;49.524;10.964;2023-12-29T13:21:10;1.63;;;0.50;;
18334;SDS011;9293;49.524;10.964;2023-12-29T13:23:38;0.80;;;0.40;;
18334;SDS011;9293;49.524;10.964;2023-12-29T13:26:08;0.70;;;0.50;;
18334;SDS011;9293;49.524;10.964;2023-12-29T13:28:37;0.50;;;0.40;;
18334;SDS011;9293;49.524;10.964;2023-12-29T13:31:09;2.78;;;0.50;;
18334;SDS011;9293;49.524;10.964;2023-12-29T13:38:50;0.73;;;0.40;;
18334;SDS011;9293;49.524;10.964;2023-12-29T13:41:25;1.50;;;0.40;;
18334;SDS011;9293;49.524;10.964;2023-12-29T13:43:57;0.60;;;0.40;;
18334;SDS011;9293;49.524;10.964;2023-12-29T13:46:28;1.30;;;0.50;;
18334;SDS011;9293;49.524;10.964;2023-12-29T13:49:00;0.45;;;0.43;;
18334;SDS011;9293;49.524;10.964;2023-12-29T13:51:34;1.30;;;0.50;;
18334;SDS011;9293;49.524;10.964;2023-12-29T13:54:03;1.63;;;0.50;;
18334;SDS011;9293;49.524;10.964;2023-12-29T13:56:31;0.80;;;0.50;;
18334;SDS011;9293;49.524;10.964;2023-12-29T13:59:00;1.85;;;0.50;;
18334;SDS011;9293;49.524;10.964;2023-12-29T14:01:41;1.52;;;0.90;;
18334;SDS011;9293;49.524;10.964;2023-12-29T14:04:10;1.38;;;1.00;;
18334;SDS011;9293;49.524;10.964;2023-12-29T14:06:49;0.67;;;0.40;;
18334;SDS011;9293;49.524;10.964;2023-12-29T14:09:26;1.17;;;0.47;;
18334;SDS011;9293;49.524;10.964;2023-12-29T14:11:57;0.40;;;0.40;;
18334;SDS011;9293;49.524;10.964;2023-12-29T14:14:28;0.70;;;0.50;;
18334;SDS011;9293;49.524;10.964;2023-12-29T14:16:56;0.65;;;0.40;;
18334;SDS011;9293;49.524;10.964;2023-12-29T14:19:25;0.80;;;0.60;;
18334;SDS011;9293;49.524;10.964;2023-12-29T14:21:54;0.75;;;0.43;;
18334;SDS011;9293;49.524;10.964;2023-12-29T14:24:22;1.00;;;0.50;;
18334;SDS011;9293;49.524;10.964;2023-12-29T14:26:55;0.80;;;0.45;;
18334;SDS011;9293;49.524;10.964;2023-12-29T14:29:27;0.47;;;0.40;;
18334;SDS011;9293;49.524;10.964;2023-12-29T14:31:56;0.40;;;0.35;;
18334;SDS011;9293;49.524;10.964;2023-12-29T14:34:27;1.02;;;0.50;;
18334;SDS011;9293;49.524;10.964;2023-12-29T14:36:56;1.20;;;0.50;;
18334;SDS011;9293;49.524;10.964;2023-12-29T14:39:24;1.00;;;0.60;;
18334;SDS011;9293;49.524;10.964;2023-12-29T14:41:52;2.15;;;0.55;;
18334;SDS011;9293;49.524;10.964;2023-12-29T14:44:21;0.80;;;0.40;;
18334;SDS011;9293;49.524;10.964;2023-12-29T14:46:51;0.63;;;0.43;;
18334;SDS011;9293;49.524;10.964;2023-12-29T14:49:19;0.63;;;0.50;;
18334;SDS011;9293;49.524;10.964;2023-12-29T14:51:48;0.30;;;0.30;;
18334;SDS011;9293;49.524;10.964;2023-12-29T14:54:16;1.00;;;0.50;;
18334;SDS011;9293;49.524;10.964;2023-12-29T14:56:45;1.15;;;0.50;;
18334;SDS011;9293;49.524;10.964;2023-12-29T14:59:13;0.55;;;0.40;;
18334;SDS011;9293;49.524;10.964;2023-12-29T15:01:41;1.48;;;0.60;;
18334;SDS011;9293;49.524;10.964;2023-12-29T15:04:10;1.13;;;0.55;;
18334;SDS011;9293;49.524;10.964;2023-12-29T15:06:40;1.35;;;0.50;;
18334;SDS011;9293;49.524;10.964;2023-12-29T15:09:09;1.48;;;0.50;;
18334;SDS011;9293;49.524;10.964;2023-12-29T15:11:38;0.60;;;0.52;;
18334;SDS011;9293;49.524;10.964;2023-12-29T15:14:06;0.95;;;0.52;;
18334;SDS011;9293;49.524;10.964;2023-12-29T15:16:35;3.47;;;2.28;;
18334;SDS011;9293;49.524;10.964;2023-12-29T15:19:03;0.88;;;0.47;;
18334;SDS011;9293;49.524;10.964;2023-12-29T15:21:33;1.70;;;0.70;;
18334;SDS011;9293;49.524;10.964;2023-12-29T15:24:01;1.10;;;0.60;;
18334;SDS011;9293;49.524;10.964;2023-12-29T15:26:30;0.82;;;0.63;;
18334;SDS011;9293;49.524;10.964;2023-12-29T15:28:58;1.17;;;0.80;;
18334;SDS011;9293;49.524;10.964;2023-12-29T15:31:27;0.50;;;0.40;;
18334;SDS011;9293;49.524;10.964;2023-12-29T15:33:56;0.98;;;0.60;;
18334;SDS011;9293;49.524;10.964;2023-12-29T15:36:24;1.17;;;0.60;;
18334;SDS011;9293;49.524;10.964;2023-12-29T15:38:53;0.95;;;0.70;;
18334;SDS011;9293;49.524;10.964;2023-12-29T15:41:21;1.35;;;0.73;;
18334;SDS011;9293;49.524;10.964;2023-12-29T15:43:50;0.80;;;0.70;;
18334;SDS011;9293;49.524;10.964;2023-12-29T15:46:20;2.10;;;1.13;;
18334;SDS011;9293;49.524;10.964;2023-12-29T15:48:49;1.35;;;0.77;;